Time;durP1;ratioP1;P1;durP2;ratioP2;P2;SDS_P1;SDS_P2;PMS_P1;PMS_P2;Temp;Humidity;BMP_temperature;BMP_pressure;BME280_temperature;BME280_humidity;BME280_pressure;Samples;Min_cycle;Max_cycle;Signal;HPM_P1;HPM_P2
2022/06/23 00:02:03;;;;;;;0.00;0.00;;;;;;;21.75;54.50;100694.16;7363436;19;20019;-63
2022/06/23 00:04:40;;;;;;;0.00;0.00;;;;;;;21.75;55.28;100694.16;7360933;19;20021;-62
2022/06/23 00:07:15;;;;;;;0.10;0.10;;;;;;;21.69;55.41;100691.91;7364534;19;20026;-64
2022/06/23 00:09:48;;;;;;;0.00;0.00;;;;;;;21.69;55.00;100681.28;7363236;19;20461;-65
2022/06/23 00:12:19;;;;;;;0.10;0.10;;;;;;;21.70;55.09;100683.00;7364115;19;20014;-65
2022/06/23 00:14:58;;;;;;;0.00;0.00;;;;;;;21.68;54.97;100675.13;7361783;19;20011;-64
2022/06/23 00:17:29;;;;;;;0.10;0.10;;;;;;;21.64;55.53;100672.78;7363541;19;20041;-65
2022/06/23 00:19:56;;;;;;;0.10;0.10;;;;;;;21.64;55.35;100683.41;7360975;19;20014;-64
2022/06/23 00:22:24;;;;;;;0.10;0.10;;;;;;;21.62;55.65;100674.69;7364993;19;20018;-62
2022/06/23 00:24:55;;;;;;;0.10;0.10;;;;;;;21.61;55.93;100683.63;7362534;19;20025;-64
2022/06/23 00:27:26;;;;;;;0.10;0.10;;;;;;;21.59;56.17;100677.56;7361259;19;20018;-65
2022/06/23 00:29:55;;;;;;;0.10;0.10;;;;;;;21.57;55.52;100676.81;7362779;19;20018;-64
2022/06/23 00:32:20;;;;;;;0.10;0.10;;;;;;;21.54;55.19;100682.34;7362301;19;21086;-64
2022/06/23 00:35:00;;;;;;;0.00;0.00;;;;;;;21.55;54.59;100681.41;7364260;19;20010;-64
2022/06/23 00:37:27;;;;;;;0.00;0.00;;;;;;;21.50;55.88;100671.94;7363960;19;20421;-64
2022/06/23 00:39:53;;;;;;;0.00;0.00;;;;;;;21.47;55.89;100666.81;7363016;19;20022;-62
2022/06/23 00:42:32;;;;;;;0.03;0.03;;;;;;;21.48;54.49;100671.19;7361912;19;20010;-65
2022/06/23 00:45:00;;;;;;;0.00;0.00;;;;;;;21.38;54.87;100655.97;7360182;19;20017;-63
2022/06/23 00:47:36;;;;;;;0.00;0.00;;;;;;;21.30;55.86;100647.66;7364249;19;20739;-64
2022/06/23 00:50:29;;;;;;;0.08;0.08;;;;;;;21.39;55.19;100647.94;7362647;19;20863;-65
2022/06/23 00:52:57;;;;;;;0.10;0.10;;;;;;;21.34;56.24;100643.84;7256690;19;2004295;-64
2022/06/23 00:55:35;;;;;;;0.10;0.10;;;;;;;21.35;55.30;100640.28;7362971;19;20194;-64
2022/06/23 00:58:16;;;;;;;0.00;0.00;;;;;;;21.33;55.79;100634.19;7360907;19;20010;-64
2022/06/23 01:00:42;;;;;;;0.00;0.00;;;;;;;21.28;56.24;100631.81;7360620;19;20028;-64
2022/06/23 01:03:07;;;;;;;0.00;0.00;;;;;;;21.28;56.39;100633.63;7364101;19;20844;-64
2022/06/23 01:05:39;;;;;;;0.00;0.00;;;;;;;21.27;55.64;100637.25;7360930;19;20024;-64
2022/06/23 01:08:21;;;;;;;0.00;0.00;;;;;;;21.29;55.50;100625.56;7360934;19;20006;-64
2022/06/23 01:10:56;;;;;;;0.10;0.10;;;;;;;21.25;56.23;100632.88;7361387;19;20014;-64
2022/06/23 01:13:31;;;;;;;0.10;0.10;;;;;;;21.23;55.53;100631.28;7363281;19;21069;-64
2022/06/23 01:16:03;;;;;;;0.10;0.10;;;;;;;21.22;56.19;100634.91;7361828;19;20051;-64
2022/06/23 01:18:44;;;;;;;0.10;0.10;;;;;;;21.22;56.13;100640.22;7362808;19;20018;-63
2022/06/23 01:21:19;;;;;;;0.10;0.10;;;;;;;21.13;56.33;100620.44;7362219;19;20018;-65
2022/06/23 01:24:07;;;;;;;0.00;0.00;;;;;;;21.19;55.98;100629.81;7360598;19;20011;-64
2022/06/23 01:26:32;;;;;;;0.10;0.10;;;;;;;21.14;56.43;100631.94;7362121;19;20034;-64
2022/06/23 01:29:04;;;;;;;0.10;0.10;;;;;;;21.13;56.89;100631.06;7359868;19;20006;-64
2022/06/23 01:31:39;;;;;;;0.00;0.00;;;;;;;21.12;56.62;100628.50;7360359;19;20088;-63
2022/06/23 01:34:40;;;;;;;0.10;0.10;;;;;;;21.10;56.04;100627.78;7362479;19;20082;-65
2022/06/23 01:37:16;;;;;;;0.10;0.10;;;;;;;21.08;56.19;100622.53;7250964;19;2004163;-64
2022/06/23 01:39:52;;;;;;;0.10;0.10;;;;;;;21.07;56.54;100636.78;7359456;19;20010;-64
2022/06/23 01:42:39;;;;;;;0.10;0.10;;;;;;;21.05;56.05;100635.19;7360334;19;20011;-64
2022/06/23 01:45:08;;;;;;;0.05;0.05;;;;;;;20.99;57.23;100624.03;7360723;19;20018;-65
2022/06/23 01:47:34;;;;;;;0.00;0.00;;;;;;;20.97;57.13;100630.38;7361801;19;20026;-65
2022/06/23 01:50:14;;;;;;;0.10;0.10;;;;;;;20.97;56.06;100627.75;7359475;19;20011;-64
2022/06/23 01:52:45;;;;;;;0.10;0.10;;;;;;;20.92;56.58;100627.19;7358460;19;20025;-64
2022/06/23 01:55:24;;;;;;;0.10;0.10;;;;;;;20.89;56.30;100622.09;7360072;19;20022;-63
2022/06/23 01:58:05;;;;;;;0.10;0.10;;;;;;;20.86;56.57;100619.66;7356048;19;20097;-64
2022/06/23 02:00:31;;;;;;;0.10;0.10;;;;;;;20.71;57.38;100603.78;7369240;19;20081;-63
2022/06/23 02:03:02;;;;;;;0.10;0.10;;;;;;;20.76;57.25;100611.44;7370163;19;20006;-64
2022/06/23 02:05:43;;;;;;;0.10;0.10;;;;;;;20.75;56.23;100612.41;7366419;19;20525;-64
2022/06/23 02:08:33;;;;;;;0.00;0.00;;;;;;;20.75;55.96;100609.75;7369016;19;20007;-63
2022/06/23 02:11:06;;;;;;;0.00;0.00;;;;;;;20.69;56.82;100615.47;7368022;19;20777;-63
2022/06/23 02:13:48;;;;;;;0.10;0.10;;;;;;;20.70;55.90;100603.91;7365527;19;20023;-64
2022/06/23 02:16:45;;;;;;;0.10;0.10;;;;;;;20.67;55.60;100604.09;7368666;19;20342;-64
2022/06/23 02:19:38;;;;;;;0.10;0.10;;;;;;;20.64;56.15;100601.66;7266327;19;2004538;-64
2022/06/23 02:22:09;;;;;;;0.00;0.00;;;;;;;20.58;56.26;100602.91;7369247;19;20014;-64
2022/06/23 02:24:46;;;;;;;0.10;0.10;;;;;;;20.56;56.48;100603.97;7358447;19;20010;-62
2022/06/23 02:27:15;;;;;;;0.00;0.00;;;;;;;20.52;56.35;100594.50;7367234;19;20018;-63
2022/06/23 02:29:40;;;;;;;0.00;0.00;;;;;;;20.46;57.21;100588.63;7365243;19;20018;-64
2022/06/23 02:32:40;;;;;;;0.10;0.10;;;;;;;20.46;56.07;100601.91;7367643;19;20473;-64
2022/06/23 02:35:19;;;;;;;0.03;0.03;;;;;;;20.44;56.57;100594.97;7265505;19;2005838;-65
2022/06/23 02:37:47;;;;;;;0.03;0.03;;;;;;;20.42;57.26;100596.88;7367327;19;20014;-63
2022/06/23 02:40:50;;;;;;;0.00;0.00;;;;;;;20.42;55.96;100589.75;7366474;19;20014;-65
2022/06/23 02:43:21;;;;;;;0.08;0.08;;;;;;;20.37;57.76;100586.53;7263964;19;2004030;-64
2022/06/23 02:46:04;;;;;;;0.10;0.10;;;;;;;20.39;57.09;100589.13;7366987;19;20070;-63
2022/06/23 02:48:48;;;;;;;0.10;0.10;;;;;;;20.33;57.89;100587.72;7367721;19;20017;-64
2022/06/23 02:51:24;;;;;;;0.10;0.10;;;;;;;20.31;57.64;100586.97;7364557;19;20738;-64
2022/06/23 02:54:11;;;;;;;0.00;0.00;;;;;;;20.31;56.55;100579.00;7367786;19;20553;-64
2022/06/23 02:56:38;;;;;;;0.00;0.00;;;;;;;20.24;57.77;100572.41;7367625;19;20684;-64
2022/06/23 02:59:13;;;;;;;0.00;0.00;;;;;;;20.26;57.08;100570.50;7363748;19;20018;-63
2022/06/23 03:01:51;;;;;;;0.05;0.05;;;;;;;20.23;57.49;100565.41;7367948;19;20457;-64
2022/06/23 03:04:26;;;;;;;0.00;0.00;;;;;;;20.17;57.13;100560.47;7354983;19;20086;-64
2022/06/23 03:07:11;;;;;;;0.10;0.10;;;;;;;20.15;58.37;100565.88;7363923;19;20074;-64
2022/06/23 03:09:41;;;;;;;0.05;0.05;;;;;;;20.13;57.73;100559.00;7366780;19;20025;-64
2022/06/23 03:12:22;;;;;;;0.00;0.00;;;;;;;20.15;57.23;100559.75;7368107;19;20073;-62
2022/06/23 03:15:01;;;;;;;0.00;0.00;;;;;;;20.07;57.72;100548.78;7366004;19;20189;-63
2022/06/23 03:17:37;;;;;;;0.00;0.00;;;;;;;20.08;58.36;100563.75;7368700;19;20018;-63
2022/06/23 03:20:18;;;;;;;0.10;0.10;;;;;;;20.08;57.58;100566.41;7359644;19;20398;-63
2022/06/23 03:23:13;;;;;;;0.10;0.10;;;;;;;20.06;57.78;100578.88;7367376;19;20007;-64
2022/06/23 03:25:48;;;;;;;0.00;0.00;;;;;;;20.01;58.46;100563.28;7264359;19;2004567;-63
2022/06/23 03:28:22;;;;;;;0.10;0.10;;;;;;;19.96;58.80;100558.25;7367352;19;20666;-64
2022/06/23 03:31:20;;;;;;;0.00;0.00;;;;;;;19.91;57.79;100548.91;7363968;19;20006;-64
2022/06/23 03:33:58;;;;;;;0.00;0.00;;;;;;;19.94;57.53;100556.69;7265782;19;2004332;-64
2022/06/23 03:36:28;;;;;;;0.00;0.00;;;;;;;19.91;58.52;100556.84;7367377;19;20123;-63
2022/06/23 03:42:16;;;;;;;0.00;0.00;;;;;;;19.85;58.12;100550.16;7265738;19;2004624;-63
2022/06/23 03:44:57;;;;;;;0.00;0.00;;;;;;;19.72;57.90;100533.34;7365407;19;20474;-64
2022/06/23 03:47:36;;;;;;;0.10;0.10;;;;;;;19.77;59.08;100552.47;7366606;19;20040;-63
2022/06/23 03:50:15;;;;;;;0.03;0.03;;;;;;;19.77;58.72;100549.81;7367609;19;20081;-63
2022/06/23 03:52:47;;;;;;;0.10;0.10;;;;;;;19.68;58.74;100553.03;7367364;19;20095;-64
2022/06/23 03:55:18;;;;;;;0.00;0.00;;;;;;;19.69;58.44;100560.03;7364185;19;20594;-63
2022/06/23 03:58:09;;;;;;;0.10;0.10;;;;;;;19.65;58.25;100548.75;7364794;19;20010;-62
2022/06/23 04:00:38;;;;;;;0.10;0.10;;;;;;;19.49;59.48;100536.56;7264470;19;2004463;-64
2022/06/23 04:03:24;;;;;;;0.05;0.05;;;;;;;19.59;58.74;100558.88;7366713;19;21867;-64
2022/06/23 04:05:56;;;;;;;0.10;0.10;;;;;;;19.55;58.85;100552.06;7265120;19;2004371;-64
2022/06/23 04:08:31;;;;;;;0.10;0.10;;;;;;;19.42;58.79;100536.94;7367411;19;20010;-63
2022/06/23 04:11:43;;;;;;;0.00;0.00;;;;;;;19.47;59.34;100554.34;7364601;19;20037;-63
2022/06/23 04:13:50;;;;;;;0.10;0.10;;;;;;;19.43;59.34;100549.22;7262402;19;2004602;-63
2022/06/23 04:16:15;;;;;;;0.10;0.10;;;;;;;19.38;59.03;100551.31;7367649;19;20488;-64
2022/06/23 04:18:46;;;;;;;0.10;0.10;;;;;;;19.36;59.21;100550.56;7367750;19;20010;-64
2022/06/23 04:21:18;;;;;;;0.00;0.00;;;;;;;19.31;59.17;100549.13;7364797;19;20018;-62
2022/06/23 04:23:51;;;;;;;0.00;0.00;;;;;;;19.27;59.15;100551.13;7341467;19;20021;-63
2022/06/23 04:26:46;;;;;;;0.10;0.10;;;;;;;19.22;59.03;100544.41;7363991;19;20631;-63
2022/06/23 04:29:37;;;;;;;0.10;0.10;;;;;;;19.20;58.03;100541.84;7261250;19;2005767;-63
2022/06/23 04:32:20;;;;;;;0.10;0.10;;;;;;;19.19;58.15;100550.72;7263031;19;2004473;-64
2022/06/23 04:34:52;;;;;;;0.10;0.10;;;;;;;19.15;58.74;100543.91;7364090;19;20011;-64
2022/06/23 04:37:50;;;;;;;0.05;0.05;;;;;;;19.12;58.04;100544.13;7364812;19;20018;-63
2022/06/23 04:40:28;;;;;;;0.10;0.10;;;;;;;19.05;58.15;100542.78;7260933;19;2004427;-63
2022/06/23 04:43:01;;;;;;;0.10;0.10;;;;;;;19.00;58.37;100544.84;7365072;19;20018;-63
2022/06/23 04:45:27;;;;;;;0.10;0.10;;;;;;;18.92;58.90;100542.66;7364258;19;20047;-62
2022/06/23 04:47:55;;;;;;;0.00;0.00;;;;;;;18.88;58.58;100534.06;7366438;19;20047;-63
2022/06/23 04:50:45;;;;;;;0.10;0.10;;;;;;;18.86;58.32;100537.75;7365760;19;20025;-64
2022/06/23 04:53:19;;;;;;;0.00;0.00;;;;;;;18.80;58.36;100531.00;7365003;19;20098;-64
2022/06/23 04:55:54;;;;;;;0.10;0.10;;;;;;;18.76;58.74;100526.88;7366510;19;20010;-63
2022/06/23 04:58:22;;;;;;;0.10;0.10;;;;;;;18.70;58.90;100532.50;7363954;19;20027;-64
2022/06/23 05:00:53;;;;;;;0.10;0.10;;;;;;;18.70;58.79;100535.13;7364911;19;20077;-63
2022/06/23 05:03:44;;;;;;;0.08;0.08;;;;;;;18.70;57.97;100537.78;7364237;19;20013;-63
2022/06/23 05:06:36;;;;;;;0.00;0.00;;;;;;;18.69;58.10;100538.72;7366637;19;20065;-64
2022/06/23 05:09:10;;;;;;;0.08;0.08;;;;;;;18.67;59.29;100537.94;7262226;19;2004624;-63
2022/06/23 05:11:44;;;;;;;0.00;0.00;;;;;;;18.67;58.74;100545.88;7364482;19;20015;-64
2022/06/23 05:14:27;;;;;;;0.03;0.03;;;;;;;18.68;58.92;100539.69;7361883;19;20038;-64
2022/06/23 05:17:01;;;;;;;0.00;0.00;;;;;;;18.69;58.90;100536.09;7366949;19;20021;-64
2022/06/23 05:19:36;;;;;;;0.00;0.00;;;;;;;18.71;58.59;100528.94;7365122;19;20330;-63
2022/06/23 05:22:12;;;;;;;0.10;0.10;;;;;;;18.72;58.58;100525.34;7365049;19;20584;-63
2022/06/23 05:24:43;;;;;;;0.10;0.10;;;;;;;18.72;59.10;100520.03;7365952;19;20017;-64
2022/06/23 05:27:33;;;;;;;0.10;0.10;;;;;;;18.65;58.22;100501.03;7362746;19;20006;-64
2022/06/23 05:30:23;;;;;;;0.00;0.00;;;;;;;18.76;59.10;100526.88;7364966;19;20025;-63
2022/06/23 05:33:12;;;;;;;0.00;0.00;;;;;;;18.78;58.91;100524.97;7364754;19;20034;-64
2022/06/23 05:35:45;;;;;;;0.00;0.00;;;;;;;18.79;59.12;100516.09;7359540;19;20420;-65
2022/06/23 05:38:37;;;;;;;0.00;0.00;;;;;;;18.81;58.39;100519.50;7364906;19;20074;-64
2022/06/23 05:41:41;;;;;;;0.08;0.08;;;;;;;18.85;58.09;100522.78;7261968;19;2004635;-62
2022/06/23 05:44:25;;;;;;;0.00;0.00;;;;;;;18.85;58.69;100521.00;7258261;19;2004303;-63
2022/06/23 05:46:53;;;;;;;0.00;0.00;;;;;;;18.86;59.02;100517.44;7361990;19;20014;-64
2022/06/23 05:49:23;;;;;;;0.00;0.00;;;;;;;18.89;58.66;100522.53;7363194;19;20046;-63
2022/06/23 05:51:57;;;;;;;0.00;0.00;;;;;;;18.91;58.56;100525.09;7362140;19;20054;-63
2022/06/23 05:54:23;;;;;;;0.10;0.10;;;;;;;18.90;59.14;100526.03;7363314;19;20006;-64
2022/06/23 05:57:10;;;;;;;0.00;0.00;;;;;;;18.93;58.32;100518.75;7360006;19;20017;-63
2022/06/23 05:59:45;;;;;;;0.00;0.00;;;;;;;18.91;58.49;100515.38;7256640;19;2004237;-63
2022/06/23 06:02:25;;;;;;;0.00;0.00;;;;;;;18.80;58.07;100501.91;7361311;19;20027;-62
2022/06/23 06:04:54;;;;;;;0.00;0.00;;;;;;;18.86;58.88;100512.16;7363078;19;20018;-62
2022/06/23 06:07:26;;;;;;;0.10;0.10;;;;;;;18.88;58.64;100519.97;7362951;19;20014;-64
2022/06/23 06:09:53;;;;;;;0.10;0.10;;;;;;;18.75;58.78;100493.38;7360659;19;20066;-64
2022/06/23 06:12:26;;;;;;;0.10;0.10;;;;;;;18.88;58.38;100514.69;7359680;19;20866;-62
2022/06/23 06:14:58;;;;;;;0.10;0.10;;;;;;;18.86;58.47;100503.34;7360266;19;20021;-64
2022/06/23 06:17:26;;;;;;;0.08;0.08;;;;;;;18.89;58.56;100514.59;7363006;19;20037;-63
2022/06/23 06:19:54;;;;;;;0.10;0.10;;;;;;;18.90;58.64;100513.63;7358555;19;20019;-63
2022/06/23 06:22:26;;;;;;;0.00;0.00;;;;;;;18.91;58.30;100515.38;7360951;19;20219;-63
2022/06/23 06:24:53;;;;;;;0.00;0.00;;;;;;;18.89;59.05;100517.22;7361052;19;20368;-63
2022/06/23 06:27:19;;;;;;;0.10;0.10;;;;;;;18.78;59.07;100495.88;7362482;19;20006;-63
2022/06/23 06:29:45;;;;;;;0.08;0.08;;;;;;;18.88;58.70;100512.88;7357852;19;20011;-64
2022/06/23 06:32:24;;;;;;;0.00;0.00;;;;;;;18.93;58.59;100508.16;7358400;19;20041;-63
2022/06/23 06:35:19;;;;;;;0.10;0.10;;;;;;;18.99;57.73;100517.53;7358632;19;20561;-64
2022/06/23 06:37:50;;;;;;;0.00;0.00;;;;;;;19.00;58.88;100523.66;7254692;19;2004407;-63
2022/06/23 06:40:17;;;;;;;0.00;0.00;;;;;;;18.90;58.69;100503.06;7357598;19;20040;-64
2022/06/23 06:42:47;;;;;;;0.00;0.00;;;;;;;18.99;58.58;100506.09;7348844;19;20469;-63
2022/06/23 06:45:17;;;;;;;0.10;0.10;;;;;;;19.04;58.66;100512.81;7362653;19;20365;-64
2022/06/23 06:47:43;;;;;;;0.10;0.10;;;;;;;18.91;58.78;100491.56;7363964;19;20011;-63
2022/06/23 06:50:18;;;;;;;0.10;0.10;;;;;;;19.11;58.34;100518.56;7368896;19;20035;-63
2022/06/23 06:52:44;;;;;;;0.10;0.10;;;;;;;19.11;58.98;100506.22;7366791;19;20010;-63
2022/06/23 06:55:44;;;;;;;0.10;0.10;;;;;;;19.20;57.92;100512.72;7366380;19;20018;-64
2022/06/23 06:58:19;;;;;;;0.08;0.08;;;;;;;19.20;58.64;100510.06;7261125;19;2004329;-64
2022/06/23 07:00:57;;;;;;;0.10;0.10;;;;;;;19.23;57.95;100501.94;7364018;19;20018;-61
2022/06/23 07:03:25;;;;;;;0.10;0.10;;;;;;;19.23;58.51;100507.25;7367128;19;20118;-62
2022/06/23 07:05:56;;;;;;;0.10;0.10;;;;;;;19.27;58.61;100506.13;7365932;19;20018;-64
2022/06/23 07:08:33;;;;;;;0.00;0.00;;;;;;;19.25;57.86;100497.41;7364663;19;20484;-64
2022/06/23 07:11:32;;;;;;;0.00;0.00;;;;;;;19.35;58.01;100503.81;7367095;19;20006;-64
2022/06/23 07:14:11;;;;;;;0.00;0.00;;;;;;;19.36;57.49;100500.25;7261774;19;2004032;-64
2022/06/23 07:16:45;;;;;;;0.00;0.00;;;;;;;19.36;57.67;100510.84;7346025;19;20040;-63
2022/06/23 07:19:38;;;;;;;0.10;0.10;;;;;;;19.37;58.04;100515.19;7369298;19;20022;-64
2022/06/23 07:22:18;;;;;;;0.10;0.10;;;;;;;19.36;57.94;100500.25;7263568;19;2004312;-63
2022/06/23 07:24:56;;;;;;;0.00;0.00;;;;;;;19.40;57.95;100507.03;7365457;19;20007;-64
2022/06/23 07:27:46;;;;;;;0.10;0.10;;;;;;;19.44;57.59;100503.25;7366468;19;20545;-64
2022/06/23 07:30:21;;;;;;;0.00;0.00;;;;;;;19.48;58.47;100503.06;7368687;19;20010;-64
2022/06/23 07:33:13;;;;;;;0.00;0.00;;;;;;;19.53;58.31;100501.00;7364162;19;20023;-63
2022/06/23 07:35:49;;;;;;;0.10;0.10;;;;;;;19.55;58.08;100489.34;7258436;19;2004327;-64
2022/06/23 07:38:17;;;;;;;0.00;0.00;;;;;;;19.59;58.31;100496.19;7367284;19;20491;-63
2022/06/23 07:40:56;;;;;;;0.00;0.00;;;;;;;19.53;57.55;100474.50;7356331;19;20003;-64
2022/06/23 07:43:27;;;;;;;0.10;0.10;;;;;;;19.69;58.22;100501.75;7361446;19;20010;-64
2022/06/23 07:45:58;;;;;;;0.10;0.10;;;;;;;19.76;57.94;100497.75;7362621;19;20014;-64
2022/06/23 07:48:26;;;;;;;0.10;0.10;;;;;;;19.79;57.98;100496.72;7364504;19;20014;-63
2022/06/23 07:50:51;;;;;;;0.10;0.10;;;;;;;19.80;57.93;100486.00;7361899;19;20007;-63
2022/06/23 07:53:28;;;;;;;0.00;0.00;;;;;;;19.85;57.82;100485.72;7363234;19;20033;-63
2022/06/23 07:55:53;;;;;;;0.10;0.10;;;;;;;19.84;57.65;100495.47;7360434;19;20006;-64
2022/06/23 07:58:24;;;;;;;0.00;0.00;;;;;;;19.82;57.70;100489.41;7357112;19;20449;-64
2022/06/23 08:01:28;;;;;;;0.10;0.10;;;;;;;19.81;56.86;100493.00;7329469;19;20529;-63
2022/06/23 08:04:03;;;;;;;0.08;0.08;;;;;;;19.73;57.46;100487.34;7218665;19;2004450;-62
2022/06/23 08:06:30;;;;;;;0.10;0.10;;;;;;;19.69;57.96;100475.25;7366876;19;20454;-62
2022/06/23 08:09:00;;;;;;;0.03;0.03;;;;;;;19.66;57.59;100480.72;7364819;19;20465;-63
2022/06/23 08:14:32;;;;;;;0.10;0.10;;;;;;;19.60;57.71;100476.69;7260095;19;2004497;-63
2022/06/23 08:17:00;;;;;;;0.08;0.08;;;;;;;19.53;58.27;100458.63;7365477;19;20805;-63
2022/06/23 08:19:28;;;;;;;0.10;0.10;;;;;;;19.59;58.54;100475.00;7367817;19;20695;-64
2022/06/23 08:22:00;;;;;;;0.10;0.10;;;;;;;19.65;58.03;100473.75;7362047;19;20014;-63
2022/06/23 08:24:25;;;;;;;0.10;0.10;;;;;;;19.67;58.38;100472.72;7364154;19;20027;-64
2022/06/23 08:26:55;;;;;;;0.10;0.10;;;;;;;19.74;58.10;100475.81;7358098;19;22464;-63
2022/06/23 08:29:26;;;;;;;0.08;0.08;;;;;;;19.80;58.49;100478.06;7357920;19;20014;-64
2022/06/23 08:31:52;;;;;;;0.10;0.10;;;;;;;19.86;58.44;100477.66;7362118;19;20512;-64
2022/06/23 08:34:17;;;;;;;0.10;0.10;;;;;;;19.88;58.39;100469.63;7365419;19;20014;-63
2022/06/23 08:36:47;;;;;;;0.10;0.10;;;;;;;20.01;58.31;100470.50;7366471;19;20011;-63
2022/06/23 08:39:46;;;;;;;0.03;0.03;;;;;;;20.10;57.33;100464.59;7364781;19;20457;-64
2022/06/23 08:42:38;;;;;;;0.10;0.10;;;;;;;20.19;57.50;100463.16;7256441;19;2004374;-64
2022/06/23 08:45:14;;;;;;;0.10;0.10;;;;;;;20.25;57.76;100461.88;7361677;19;20014;-64
2022/06/23 08:48:06;;;;;;;0.03;0.03;;;;;;;20.28;58.05;100462.53;7362752;19;20035;-65
2022/06/23 08:50:43;;;;;;;0.00;0.00;;;;;;;20.39;57.41;100465.31;7260776;19;2004455;-64
2022/06/23 08:53:47;;;;;;;0.10;0.10;;;;;;;20.53;57.12;100455.59;7366392;19;20010;-64
2022/06/23 08:56:20;;;;;;;0.00;0.00;;;;;;;20.47;57.38;100431.19;7258013;19;2004209;-64
2022/06/23 08:59:07;;;;;;;0.10;0.10;;;;;;;20.70;57.31;100450.00;7360606;19;20014;-63
2022/06/23 09:01:42;;;;;;;0.10;0.10;;;;;;;20.79;57.18;100446.72;7363232;19;20006;-63
2022/06/23 09:04:29;;;;;;;0.08;0.08;;;;;;;20.91;56.62;100447.66;7366770;19;20030;-64
2022/06/23 09:07:10;;;;;;;0.10;0.10;;;;;;;21.01;56.98;100442.56;7364133;19;20021;-64
2022/06/23 09:09:52;;;;;;;0.00;0.00;;;;;;;21.16;56.46;100444.13;7365653;19;20010;-65
2022/06/23 09:12:35;;;;;;;0.10;0.10;;;;;;;21.30;56.63;100446.69;7365958;19;20018;-66
2022/06/23 09:15:22;;;;;;;0.10;0.10;;;;;;;21.46;56.32;100439.31;7365404;19;20014;-64
2022/06/23 09:18:18;;;;;;;0.10;0.10;;;;;;;21.63;56.43;100443.38;7364379;19;20019;-64
2022/06/23 09:20:49;;;;;;;0.10;0.10;;;;;;;21.77;55.96;100431.75;7258325;19;2005428;-64
2022/06/23 09:24:00;;;;;;;0.10;0.10;;;;;;;21.84;55.52;100418.84;7363776;19;20425;-64
2022/06/23 09:26:45;;;;;;;0.10;0.10;;;;;;;21.99;55.59;100423.03;7262181;19;2004812;-64
2022/06/23 09:29:29;;;;;;;0.08;0.08;;;;;;;22.07;55.49;100420.66;7364545;19;20018;-64
2022/06/23 09:31:59;;;;;;;0.10;0.10;;;;;;;22.10;55.01;100419.56;7364662;19;20010;-63
2022/06/23 09:34:24;;;;;;;0.10;0.10;;;;;;;22.15;55.16;100413.00;7364468;19;20101;-64
2022/06/23 09:36:58;;;;;;;0.10;0.10;;;;;;;22.30;55.10;100410.09;7364580;19;20035;-65
2022/06/23 09:39:44;;;;;;;0.10;0.10;;;;;;;22.62;54.92;100411.16;7364515;19;20002;-63
2022/06/23 09:42:30;;;;;;;0.00;0.00;;;;;;;22.98;54.89;100412.78;7364521;19;20010;-64
2022/06/23 09:44:59;;;;;;;0.10;0.10;;;;;;;23.22;54.11;100412.63;7365698;19;20010;-63
2022/06/23 09:48:14;;;;;;;0.10;0.10;;;;;;;23.59;54.63;100408.81;7362476;19;20748;-63
2022/06/23 09:51:00;;;;;;;0.10;0.10;;;;;;;23.93;53.15;100394.41;7258295;19;2004403;-63
2022/06/23 09:53:34;;;;;;;0.05;0.05;;;;;;;24.21;52.85;100397.41;7365768;19;20010;-61
2022/06/23 09:56:44;;;;;;;0.10;0.10;;;;;;;24.50;52.71;100387.81;7363372;19;20010;-64
2022/06/23 09:59:20;;;;;;;0.10;0.10;;;;;;;24.74;51.65;100394.69;7260977;19;2004492;-65
2022/06/23 10:02:07;;;;;;;0.10;0.10;;;;;;;25.02;52.37;100385.09;7361927;19;20010;-63
2022/06/23 10:05:02;;;;;;;0.00;0.00;;;;;;;25.22;51.24;100381.53;7364319;19;20039;-63
2022/06/23 10:07:37;;;;;;;0.10;0.10;;;;;;;25.34;50.56;100376.91;7260834;19;2004421;-62
2022/06/23 10:10:26;;;;;;;0.10;0.10;;;;;;;25.55;50.33;100377.66;7365114;19;21146;-64
2022/06/23 10:13:17;;;;;;;0.10;0.10;;;;;;;25.74;50.44;100381.31;7363152;19;20102;-62
2022/06/23 10:15:45;;;;;;;0.10;0.10;;;;;;;25.81;49.05;100369.97;7361693;19;20077;-61
2022/06/23 10:18:20;;;;;;;0.10;0.10;;;;;;;26.07;49.73;100364.03;7365385;19;20019;-64
2022/06/23 10:21:18;;;;;;;0.10;0.10;;;;;;;26.33;49.70;100374.97;7368760;19;20025;-65
2022/06/23 10:23:52;;;;;;;0.10;0.10;;;;;;;26.57;48.89;100367.31;7260584;19;2004620;-66
2022/06/23 10:26:17;;;;;;;0.10;0.10;;;;;;;26.84;48.37;100363.84;7370420;19;20051;-64
2022/06/23 10:29:04;;;;;;;0.10;0.10;;;;;;;27.29;49.51;100340.75;7365780;19;21529;-63
2022/06/23 10:31:50;;;;;;;0.10;0.10;;;;;;;27.75;48.44;100360.34;7267019;19;2004497;-60
2022/06/23 10:34:31;;;;;;;0.10;0.10;;;;;;;28.03;47.95;100356.59;7366365;19;20736;-63
2022/06/23 10:37:14;;;;;;;0.10;0.10;;;;;;;28.22;47.35;100360.06;7370930;19;20923;-64
2022/06/23 10:40:07;;;;;;;0.10;0.10;;;;;;;28.39;46.94;100356.53;7368224;19;20044;-63
2022/06/23 10:43:06;;;;;;;0.10;0.10;;;;;;;28.54;46.61;100349.56;7266687;19;2005125;-64
2022/06/23 10:45:40;;;;;;;0.10;0.10;;;;;;;28.63;44.25;100351.25;7267873;19;2004472;-63
2022/06/23 10:48:37;;;;;;;0.10;0.10;;;;;;;28.72;43.80;100351.31;7368339;19;20537;-65
2022/06/23 10:51:30;;;;;;;0.10;0.10;;;;;;;29.15;44.57;100348.50;7263622;19;2004515;-63
2022/06/23 10:54:21;;;;;;;0.10;0.10;;;;;;;29.51;45.92;100342.88;7368663;19;20014;-60
2022/06/23 10:56:57;;;;;;;0.10;0.10;;;;;;;29.63;42.35;100346.09;7266987;19;2004582;-60
2022/06/23 10:59:41;;;;;;;0.10;0.10;;;;;;;29.89;43.33;100348.63;7366937;19;20369;-58
2022/06/23 11:02:42;;;;;;;0.10;0.10;;;;;;;29.82;41.44;100345.78;7367296;19;20492;-58
2022/06/23 11:05:31;;;;;;;0.10;0.10;;;;;;;29.82;42.38;100344.94;7261790;19;2004296;-59
2022/06/23 11:08:11;;;;;;;0.03;0.03;;;;;;;29.64;41.61;100340.53;7368594;19;20871;-59
2022/06/23 11:10:45;;;;;;;0.00;0.00;;;;;;;29.62;41.58;100339.03;7367298;19;20011;-58
2022/06/23 11:13:29;;;;;;;0.10;0.10;;;;;;;29.49;41.74;100336.78;7368651;19;20006;-58
2022/06/23 11:16:26;;;;;;;0.10;0.10;;;;;;;29.38;40.23;100324.50;7362529;19;20002;-59
2022/06/23 11:18:55;;;;;;;0.10;0.10;;;;;;;29.23;41.41;100319.94;7258848;19;2004461;-59
2022/06/23 11:22:04;;;;;;;0.20;0.20;;;;;;;29.06;42.94;100311.84;7369006;19;20010;-59
2022/06/23 11:24:48;;;;;;;0.10;0.10;;;;;;;28.99;43.16;100316.16;7266382;19;2004367;-58
2022/06/23 11:27:44;;;;;;;0.10;0.10;;;;;;;28.96;43.48;100311.13;7366032;19;20014;-59
2022/06/23 11:30:57;;;;;;;0.00;0.00;;;;;;;28.92;43.52;100305.22;7265846;19;2004387;-59
2022/06/23 11:33:59;;;;;;;0.08;0.08;;;;;;;28.84;43.12;100304.31;7264180;19;2004482;-58
2022/06/23 11:36:30;;;;;;;0.10;0.10;;;;;;;28.66;41.60;100301.75;7264340;19;2004248;-58
2022/06/23 11:39:14;;;;;;;0.10;0.10;;;;;;;28.59;42.86;100303.38;7366444;19;20014;-59
2022/06/23 11:41:42;;;;;;;0.10;0.10;;;;;;;28.44;42.37;100301.31;7368070;19;20126;-61
2022/06/23 11:44:16;;;;;;;0.20;0.20;;;;;;;28.31;41.71;100302.72;7366733;19;20438;-58
2022/06/23 11:47:17;;;;;;;0.00;0.00;;;;;;;28.30;43.27;100301.03;7368324;19;20026;-58
2022/06/23 11:50:07;;;;;;;0.10;0.10;;;;;;;28.22;42.55;100300.97;7264943;19;2004288;-58
2022/06/23 11:52:44;;;;;;;0.00;0.00;;;;;;;28.05;42.90;100295.50;7365665;19;20024;-57
2022/06/23 11:55:27;;;;;;;0.10;0.10;;;;;;;27.93;43.18;100288.72;7368065;19;20013;-59
2022/06/23 11:58:21;;;;;;;0.10;0.10;;;;;;;27.81;43.77;100289.97;7367606;19;20458;-59
2022/06/23 12:01:21;;;;;;;0.00;0.00;;;;;;;27.74;43.72;100281.72;7263371;19;2004527;-58
2022/06/23 12:04:12;;;;;;;0.10;0.10;;;;;;;27.71;43.64;100281.16;7265766;19;2004190;-59
2022/06/23 12:06:59;;;;;;;0.10;0.10;;;;;;;27.71;43.83;100273.13;7367083;19;20047;-58
2022/06/23 12:09:42;;;;;;;0.10;0.10;;;;;;;27.71;43.25;100267.75;7367371;19;20030;-59
2022/06/23 12:12:08;;;;;;;0.10;0.10;;;;;;;27.68;43.44;100266.22;7367930;19;20010;-58
2022/06/23 12:14:36;;;;;;;0.10;0.10;;;;;;;27.68;44.02;100264.38;7366337;19;22641;-59
2022/06/23 12:17:20;;;;;;;0.10;0.10;;;;;;;27.74;43.77;100259.41;7368760;19;20029;-59
2022/06/23 12:20:02;;;;;;;0.10;0.10;;;;;;;27.86;44.21;100268.88;7364358;19;20549;-58
2022/06/23 12:22:37;;;;;;;0.10;0.10;;;;;;;27.95;44.06;100262.56;7361445;19;20017;-57